Time;durP1;ratioP1;P1;durP2;ratioP2;P2;SDS_P1;SDS_P2;PMS_P1;PMS_P2;Temp;Humidity;BMP_temperature;BMP_pressure;BME280_temperature;BME280_humidity;BME280_pressure;Samples;Min_cycle;Max_cycle;Signal;HPM_P1;HPM_P2
2020/12/20 00:01:18;;;;;;;17.02;13.80;;;;;;;10.94;52.49;101243.88;4999904;27;128444;-58
2020/12/20 00:03:46;;;;;;;16.52;13.95;;;;;;;10.94;52.94;101241.19;5002068;27;97812;-58
2020/12/20 00:06:12;;;;;;;16.08;13.30;;;;;;;10.94;52.63;101251.97;5019206;27;98885;-57
2020/12/20 00:08:38;;;;;;;15.85;13.40;;;;;;;10.95;52.81;101277.06;5020789;27;127960;-58
2020/12/20 00:11:04;;;;;;;15.80;13.48;;;;;;;10.94;52.63;101297.84;5020766;27;119496;-58
2020/12/20 00:13:30;;;;;;;17.05;13.25;;;;;;;10.92;53.25;101312.63;5020909;27;123122;-58
2020/12/20 00:15:56;;;;;;;14.70;12.38;;;;;;;10.91;53.32;101319.09;5021413;27;98362;-58
2020/12/20 00:18:22;;;;;;;14.60;12.40;;;;;;;10.88;53.26;101311.50;5023020;27;101040;-58
2020/12/20 00:20:48;;;;;;;15.15;11.85;;;;;;;10.85;53.27;101304.75;5008339;27;126471;-58
2020/12/20 00:23:14;;;;;;;14.15;12.07;;;;;;;10.86;52.75;101311.75;5003648;27;123331;-58
2020/12/20 00:25:40;;;;;;;13.13;11.65;;;;;;;10.84;52.96;101308.47;4984502;27;128585;-58
2020/12/20 00:28:07;;;;;;;13.68;11.88;;;;;;;10.84;53.02;101302.28;5003564;27;128239;-58
2020/12/20 00:30:33;;;;;;;12.65;11.32;;;;;;;10.84;53.33;101307.66;5004627;27;98369;-58
2020/12/20 00:32:59;;;;;;;13.52;12.02;;;;;;;10.81;53.21;101309.00;5012641;27;124038;-58
2020/12/20 00:35:25;;;;;;;12.70;11.15;;;;;;;10.81;53.48;101319.78;5024389;27;98575;-58
2020/12/20 00:37:51;;;;;;;13.35;11.77;;;;;;;10.80;52.95;101312.72;5023154;27;129096;-58
2020/12/20 00:40:17;;;;;;;13.25;11.45;;;;;;;10.80;53.12;101305.47;5024779;27;98045;-58
2020/12/20 00:42:43;;;;;;;13.52;11.70;;;;;;;10.78;53.35;101315.69;5023466;27;122903;-58
2020/12/20 00:45:09;;;;;;;12.45;10.88;;;;;;;10.80;53.37;101328.91;5023875;27;99153;-58
2020/12/20 00:47:36;;;;;;;12.50;10.57;;;;;;;10.79;53.21;101322.72;5023770;27;126878;-58
2020/12/20 00:50:02;;;;;;;12.50;10.68;;;;;;;10.77;53.33;101319.47;5023405;27;127288;-58
2020/12/20 00:52:28;;;;;;;11.65;10.20;;;;;;;10.76;53.24;101311.59;5024212;27;105917;-58
2020/12/20 00:54:54;;;;;;;13.23;10.70;;;;;;;10.76;53.32;101325.09;5023126;27;128814;-58
2020/12/20 00:57:20;;;;;;;12.07;10.40;;;;;;;10.76;53.02;101331.28;5024550;27;98446;-58
2020/12/20 00:59:46;;;;;;;11.40;10.23;;;;;;;10.73;52.99;101336.38;5022759;27;119283;-57
2020/12/20 01:02:12;;;;;;;11.70;10.32;;;;;;;10.74;52.58;101327.22;5004730;27;97763;-58
2020/12/20 01:04:38;;;;;;;12.52;10.93;;;;;;;10.71;53.12;101331.22;5003548;27;127732;-58
2020/12/20 01:07:04;;;;;;;11.40;10.10;;;;;;;10.72;53.21;101334.72;5003800;27;114944;-58
2020/12/20 01:09:31;;;;;;;10.90;9.80;;;;;;;10.71;52.79;101328.53;4984086;27;127303;-58
2020/12/20 01:11:59;;;;;;;13.10;10.32;;;;;;;10.69;53.54;101333.38;5003956;27;97701;-58
2020/12/20 01:14:25;;;;;;;11.18;9.98;;;;;;;10.68;52.88;101336.28;5001870;27;98620;-58
2020/12/20 01:16:51;;;;;;;11.77;10.57;;;;;;;10.69;53.47;101337.91;4984778;27;102934;-58
2020/12/20 01:19:17;;;;;;;12.85;10.45;;;;;;;10.68;53.26;101333.59;5004939;27;118518;-58
2020/12/20 01:21:43;;;;;;;11.40;10.18;;;;;;;10.69;53.06;101327.13;5021026;27;123328;-58
2020/12/20 01:24:09;;;;;;;12.00;10.65;;;;;;;10.67;53.35;101330.09;5023052;27;125993;-58
2020/12/20 01:26:35;;;;;;;12.27;10.63;;;;;;;10.68;53.07;101333.59;5017781;27;126763;-58
2020/12/20 01:29:01;;;;;;;11.50;10.30;;;;;;;10.66;52.83;101341.13;5002240;27;126837;-58
2020/12/20 01:31:27;;;;;;;11.73;10.45;;;;;;;10.65;53.03;101332.22;5003276;27;97832;-58
2020/12/20 01:33:53;;;;;;;11.63;10.20;;;;;;;10.66;53.12;101330.34;5003436;27;98408;-58
2020/12/20 01:36:19;;;;;;;11.90;10.45;;;;;;;10.65;52.82;101334.94;5003915;27;98622;-58
2020/12/20 01:38:46;;;;;;;13.00;10.77;;;;;;;10.66;52.81;101323.06;5020427;27;98467;-58
2020/12/20 01:41:12;;;;;;;12.05;10.75;;;;;;;10.65;53.32;101318.75;5022821;27;122228;-58
2020/12/20 01:43:45;;;;;;;11.50;10.30;;;;;;;10.66;53.09;101324.94;5023705;27;98270;-58
2020/12/20 01:46:19;;;;;;;11.18;9.98;;;;;;;10.68;52.77;101320.13;5021521;27;97858;-58
2020/12/20 01:48:46;;;;;;;11.73;10.52;;;;;;;10.66;53.35;101325.75;5011461;27;98511;-58
2020/12/20 01:51:12;;;;;;;12.68;10.75;;;;;;;10.68;53.78;101312.03;5031197;27;97976;-58
2020/12/20 01:53:39;;;;;;;13.00;11.25;;;;;;;10.69;53.54;101313.66;5022317;27;128092;-57
2020/12/20 01:56:05;;;;;;;12.18;10.88;;;;;;;10.71;53.24;101319.63;5002012;27;114953;-58
2020/12/20 01:58:36;;;;;;;13.32;11.07;;;;;;;10.73;53.45;101320.22;5002751;27;104633;-58
2020/12/20 02:01:03;;;;;;;13.00;10.60;;;;;;;10.73;53.37;101331.81;5011107;27;97820;-59
2020/12/20 02:03:30;;;;;;;12.38;11.07;;;;;;;10.73;53.74;101326.41;5002835;27;99036;-58
2020/12/20 02:05:56;;;;;;;12.15;10.32;;;;;;;10.76;53.95;101327.78;5000236;27;128027;-58
2020/12/20 02:08:22;;;;;;;12.50;11.20;;;;;;;10.75;53.49;101315.38;5001632;27;127435;-57
2020/12/20 02:11:15;;;;;;;14.07;11.25;;;;;;;10.74;53.59;101313.75;5001502;27;124694;-58
2020/12/20 02:13:52;;;;;;;12.35;11.00;;;;;;;10.77;54.35;101303.28;5002259;27;99185;-58
2020/12/20 02:16:22;;;;;;;12.25;10.95;;;;;;;10.77;54.22;101313.25;5002798;27;98418;-58
2020/12/20 02:18:49;;;;;;;13.18;11.77;;;;;;;10.79;53.82;101308.41;5004272;27;98224;-58
2020/12/20 02:21:19;;;;;;;12.18;10.88;;;;;;;10.80;53.53;101304.66;5023015;27;112062;-58
2020/12/20 02:23:50;;;;;;;12.48;11.10;;;;;;;10.80;54.28;101312.72;5019981;27;116978;-58
2020/12/20 02:26:16;;;;;;;12.35;11.05;;;;;;;10.82;54.01;101305.22;5023537;27;98581;-58
2020/12/20 02:28:43;;;;;;;13.32;11.20;;;;;;;10.84;53.52;101307.66;5020491;27;112741;-58
2020/12/20 02:31:09;;;;;;;12.18;10.93;;;;;;;10.86;53.96;101302.84;5021548;27;122777;-58
2020/12/20 02:33:35;;;;;;;13.02;10.40;;;;;;;10.86;54.18;101295.56;5021786;27;128749;-58
2020/12/20 02:36:01;;;;;;;13.27;11.27;;;;;;;10.85;53.92;101306.63;5007917;27;128091;-58
2020/12/20 02:38:28;;;;;;;12.32;10.93;;;;;;;10.83;53.58;101306.84;5016072;27;128275;-58
2020/12/20 02:40:56;;;;;;;12.45;10.93;;;;;;;10.83;54.01;101301.47;5022435;27;97923;-58
2020/12/20 02:43:22;;;;;;;13.05;11.55;;;;;;;10.82;53.98;101303.34;5022218;27;98789;-58
2020/12/20 02:45:48;;;;;;;12.77;10.95;;;;;;;10.84;54.18;101294.19;5009360;27;126837;-58
2020/12/20 02:48:14;;;;;;;12.27;10.95;;;;;;;10.83;53.67;101304.16;5002366;27;98004;-58
2020/12/20 02:50:40;;;;;;;12.38;11.05;;;;;;;10.81;53.97;101309.00;5001414;27;122899;-58
2020/12/20 02:53:06;;;;;;;12.88;11.13;;;;;;;10.79;54.13;101309.22;4949136;27;130209;-58
2020/12/20 02:55:32;;;;;;;12.40;11.10;;;;;;;10.79;53.81;101311.09;4982649;27;126490;-58
2020/12/20 02:57:58;;;;;;;13.35;11.40;;;;;;;10.79;53.88;101319.19;5001056;27;119407;-58
2020/12/20 03:00:24;;;;;;;12.23;10.55;;;;;;;10.76;54.03;101311.59;5001140;27;123137;-58
2020/12/20 03:02:50;;;;;;;13.45;11.63;;;;;;;10.76;53.85;101319.69;5001749;27;128162;-57
2020/12/20 03:05:17;;;;;;;13.38;11.82;;;;;;;10.74;53.54;101303.78;5002070;27;98877;-58
2020/12/20 03:07:45;;;;;;;13.85;11.15;;;;;;;10.73;53.90;101299.44;5001616;27;98246;-58
2020/12/20 03:10:11;;;;;;;14.23;11.50;;;;;;;10.72;54.04;101296.97;5002155;27;97787;-58
2020/12/20 03:12:37;;;;;;;12.85;11.23;;;;;;;10.70;53.86;101294.53;5001127;27;100195;-58
2020/12/20 03:15:04;;;;;;;12.70;10.63;;;;;;;10.67;54.03;101286.94;5002029;27;100308;-58
2020/12/20 03:17:30;;;;;;;13.20;11.20;;;;;;;10.70;53.48;101285.66;5013623;27;109231;-58
2020/12/20 03:19:56;;;;;;;12.82;11.25;;;;;;;10.69;53.53;101279.44;5020074;27;119790;-58
2020/12/20 03:22:22;;;;;;;12.60;10.85;;;;;;;10.70;53.65;101288.34;5021516;27;108560;-58
2020/12/20 03:24:48;;;;;;;12.77;11.18;;;;;;;10.70;52.89;101285.66;5020844;27;128872;-58
2020/12/20 03:27:14;;;;;;;12.93;11.20;;;;;;;10.66;53.31;101296.09;5021497;27;126734;-57
2020/12/20 03:29:40;;;;;;;11.68;10.48;;;;;;;10.67;53.18;101291.53;5021385;27;122676;-58
2020/12/20 03:32:06;;;;;;;13.25;11.02;;;;;;;10.64;53.54;101297.41;5021820;27;98443;-58
2020/12/20 03:34:32;;;;;;;12.15;10.85;;;;;;;10.64;53.30;101287.44;5021463;27;127403;-58
2020/12/20 03:36:58;;;;;;;12.18;10.68;;;;;;;10.62;53.13;101292.28;5018783;27;127779;-58
2020/12/20 03:39:24;;;;;;;12.77;11.20;;;;;;;10.61;53.29;101296.03;4999547;27;123191;-58
2020/12/20 03:41:50;;;;;;;12.32;10.75;;;;;;;10.62;53.05;101286.88;4998953;27;126794;-58
2020/12/20 03:44:16;;;;;;;12.65;10.95;;;;;;;10.61;53.61;101289.81;5004546;27;119937;-58
2020/12/20 03:46:42;;;;;;;12.32;11.02;;;;;;;10.58;52.84;101277.66;5019697;27;98387;-58
2020/12/20 03:49:08;;;;;;;12.43;10.65;;;;;;;10.61;52.99;101285.25;5020865;27;123836;-58
2020/12/20 03:51:34;;;;;;;11.75;10.55;;;;;;;10.58;52.95;101285.75;5021080;27;128368;-57
2020/12/20 03:54:03;;;;;;;12.45;10.85;;;;;;;10.57;52.80;101284.94;5021143;27;128452;-58
2020/12/20 03:56:29;;;;;;;12.05;10.63;;;;;;;10.57;52.69;101281.41;5023582;27;97997;-58
2020/12/20 03:58:56;;;;;;;12.25;10.73;;;;;;;10.59;53.03;101273.06;5015031;27;97896;-58
2020/12/20 04:01:22;;;;;;;11.57;10.38;;;;;;;10.60;53.09;101272.81;5023152;27;99276;-58
2020/12/20 04:03:48;;;;;;;12.68;10.77;;;;;;;10.64;52.70;101278.53;5022107;27;128502;-58
2020/12/20 04:06:14;;;;;;;11.93;10.02;;;;;;;10.64;52.78;101278.53;5005110;27;126892;-58
2020/12/20 04:08:40;;;;;;;12.95;10.18;;;;;;;10.67;52.66;101286.13;5024085;27;123052;-58
2020/12/20 04:11:06;;;;;;;12.75;10.80;;;;;;;10.67;52.68;101283.44;5024672;27;98439;-58
2020/12/20 04:13:32;;;;;;;12.10;10.23;;;;;;;10.67;52.23;101289.63;5005019;27;108290;-58
2020/12/20 04:16:10;;;;;;;12.20;10.90;;;;;;;10.68;52.55;101301.25;5003627;27;98123;-58
2020/12/20 04:18:36;;;;;;;12.57;10.40;;;;;;;10.66;52.53;101301.50;5005050;27;97907;-58
2020/12/20 04:21:04;;;;;;;13.38;11.15;;;;;;;10.65;52.29;101307.97;5003884;27;118061;-58
2020/12/20 04:23:30;;;;;;;13.15;11.18;;;;;;;10.65;52.50;101304.41;5004186;27;97922;-58
2020/12/20 04:25:56;;;;;;;14.02;11.50;;;;;;;10.62;51.94;101302.25;5001692;27;120923;-58
2020/12/20 04:28:22;;;;;;;15.35;11.50;;;;;;;10.63;51.95;101298.47;5004081;27;113816;-58
2020/12/20 04:30:48;;;;;;;14.07;11.52;;;;;;;10.61;51.83;101301.44;5003541;27;106555;-58
2020/12/20 04:33:14;;;;;;;13.85;11.30;;;;;;;10.61;51.81;101305.97;5004587;27;102607;-58
2020/12/20 04:35:40;;;;;;;14.75;11.60;;;;;;;10.57;51.48;101306.50;5003828;27;106392;-58
2020/12/20 04:38:06;;;;;;;14.27;11.48;;;;;;;10.59;51.89;101311.63;5014361;27;109729;-58
2020/12/20 04:40:32;;;;;;;12.73;10.85;;;;;;;10.59;52.36;101313.50;5024217;27;111216;-58
2020/12/20 04:43:03;;;;;;;13.85;11.18;;;;;;;10.59;52.37;101318.91;5022132;27;102917;-58
2020/12/20 04:45:29;;;;;;;14.18;11.95;;;;;;;10.55;52.12;101313.19;5023631;27;105582;-58
2020/12/20 04:47:56;;;;;;;13.52;11.07;;;;;;;10.54;51.92;101320.47;5021772;27;114293;-58
2020/12/20 04:50:23;;;;;;;14.57;11.68;;;;;;;10.52;51.93;101311.78;5022622;27;97917;-58
2020/12/20 04:52:54;;;;;;;13.23;11.02;;;;;;;10.51;52.27;101312.88;5022387;27;98998;-58
2020/12/20 04:55:21;;;;;;;12.98;11.13;;;;;;;10.51;51.44;101303.97;5021860;27;118800;-58
2020/12/20 04:57:48;;;;;;;13.20;11.32;;;;;;;10.48;51.90;101294.47;5024278;27;98011;-58
2020/12/20 05:00:14;;;;;;;13.40;11.27;;;;;;;10.46;51.96;101302.00;5023719;27;98958;-58
2020/12/20 05:02:40;;;;;;;12.95;11.02;;;;;;;10.47;52.07;101303.63;5023246;27;127914;-58
2020/12/20 05:05:07;;;;;;;12.70;10.85;;;;;;;10.46;51.64;101309.28;5000603;27;127644;-58
2020/12/20 05:07:34;;;;;;;13.30;10.65;;;;;;;10.45;52.29;101313.03;5000856;27;120931;-58
2020/12/20 05:10:00;;;;;;;13.30;11.13;;;;;;;10.43;52.18;101313.28;5003515;27;98150;-58
2020/12/20 05:12:31;;;;;;;12.38;10.27;;;;;;;10.42;51.63;101311.66;5003126;27;116410;-58
2020/12/20 05:14:57;;;;;;;13.07;10.85;;;;;;;10.43;52.25;101310.59;4985478;27;98423;-58
2020/12/20 05:17:25;;;;;;;12.98;10.95;;;;;;;10.40;52.63;101302.97;5004786;27;97822;-58
2020/12/20 05:19:51;;;;;;;13.15;10.82;;;;;;;10.40;52.66;101294.91;5009926;27;128628;-58
2020/12/20 05:22:21;;;;;;;12.63;10.52;;;;;;;10.38;52.39;101294.34;5023550;27;128512;-58
2020/12/20 05:24:51;;;;;;;12.80;10.48;;;;;;;10.37;51.92;101295.38;5022656;27;98576;-58
2020/12/20 05:27:23;;;;;;;12.95;10.77;;;;;;;10.37;52.16;101299.97;5021810;27;97930;-58
2020/12/20 05:29:52;;;;;;;11.68;10.25;;;;;;;10.34;51.92;101290.50;5023272;27;98228;-58
2020/12/20 05:32:29;;;;;;;13.30;10.73;;;;;;;10.34;52.71;101292.38;5021728;27;99227;-58
2020/12/20 05:35:04;;;;;;;13.75;11.27;;;;;;;10.37;52.62;101291.88;5022611;27;100098;-58
2020/12/20 05:37:32;;;;;;;13.15;10.32;;;;;;;10.36;52.53;101295.63;5017335;27;101582;-58
2020/12/20 05:39:59;;;;;;;13.75;10.70;;;;;;;10.41;52.57;101284.94;5003150;27;98456;-58
2020/12/20 05:42:25;;;;;;;13.05;10.43;;;;;;;10.40;52.01;101302.97;5003822;27;99764;-58
2020/12/20 05:45:10;;;;;;;12.27;10.68;;;;;;;10.38;52.06;101297.03;5002704;27;98001;-58
2020/12/20 05:47:38;;;;;;;13.07;10.52;;;;;;;10.38;51.80;101294.34;4986384;27;98064;-59
2020/12/20 05:50:07;;;;;;;11.98;9.90;;;;;;;10.38;52.20;101288.94;5001316;27;98800;-58
2020/12/20 05:52:33;;;;;;;12.23;10.20;;;;;;;10.41;52.41;101290.31;4984286;27;119679;-57
2020/12/20 05:54:59;;;;;;;11.73;10.00;;;;;;;10.38;52.59;101278.16;5002240;27;128273;-58
2020/12/20 05:57:25;;;;;;;10.57;9.20;;;;;;;10.43;52.64;101289.03;5002541;27;122844;-58
2020/12/20 05:59:53;;;;;;;10.27;9.18;;;;;;;10.38;52.56;101288.94;5001982;27;99203;-59
2020/12/20 06:02:19;;;;;;;11.45;9.52;;;;;;;10.42;52.40;101289.28;5018737;27;98795;-58
2020/12/20 06:04:46;;;;;;;11.30;9.32;;;;;;;10.40;52.43;101284.13;5022558;27;98551;-57
2020/12/20 06:07:13;;;;;;;10.93;9.32;;;;;;;10.42;52.20;101282.00;5005482;27;97843;-58
2020/12/20 06:09:59;;;;;;;11.07;9.30;;;;;;;10.37;52.76;101284.59;5022213;27;98461;-58
2020/12/20 06:12:30;;;;;;;12.23;9.00;;;;;;;10.37;52.54;101286.47;5021212;27;98304;-58
2020/12/20 06:14:58;;;;;;;10.43;8.90;;;;;;;10.37;52.44;101284.59;5022345;27;101445;-58
2020/12/20 06:17:27;;;;;;;11.02;9.40;;;;;;;10.36;53.06;101284.84;5000493;27;97764;-58
2020/12/20 06:20:01;;;;;;;11.73;9.32;;;;;;;10.35;52.59;101299.41;5002662;27;102008;-60
2020/12/20 06:22:28;;;;;;;10.63;8.68;;;;;;;10.36;52.86;101296.44;5002609;27;98158;-58
2020/12/20 06:24:57;;;;;;;10.88;9.30;;;;;;;10.35;52.14;101300.22;5002400;27;97910;-57
2020/12/20 06:27:26;;;;;;;9.35;8.32;;;;;;;10.35;52.29;101302.91;5002973;27;97721;-58
2020/12/20 06:30:00;;;;;;;10.35;8.50;;;;;;;10.32;52.72;101306.91;5002436;27;98163;-58
2020/12/20 06:32:40;;;;;;;10.73;9.10;;;;;;;10.33;52.57;101310.41;5002311;27;119400;-58
2020/12/20 06:35:20;;;;;;;11.77;9.32;;;;;;;10.31;52.17;101312.56;5003618;27;97889;-58
2020/12/20 06:37:47;;;;;;;9.90;8.77;;;;;;;10.30;52.21;101309.03;4992704;27;98120;-58
2020/12/20 06:40:14;;;;;;;11.73;9.32;;;;;;;10.31;52.49;101310.66;5006324;27;98418;-58
2020/12/20 06:42:42;;;;;;;11.13;8.85;;;;;;;10.30;52.93;101310.94;5002815;27;98857;-58
2020/12/20 06:45:20;;;;;;;10.13;8.85;;;;;;;10.28;52.30;101308.44;5009910;27;98050;-58
2020/12/20 06:47:51;;;;;;;10.85;9.73;;;;;;;10.30;51.98;101310.94;5021842;27;98707;-58
2020/12/20 06:50:43;;;;;;;11.57;10.07;;;;;;;10.29;52.17;101312.78;5022506;27;98997;-58
2020/12/20 06:53:09;;;;;;;11.48;10.20;;;;;;;10.31;51.58;101310.66;5022285;27;98347;-58
2020/12/20 06:55:36;;;;;;;13.38;10.45;;;;;;;10.31;51.86;101307.97;5022537;27;98419;-58
2020/12/20 06:58:01;;;;;;;11.88;10.50;;;;;;;10.31;51.79;101307.16;5022312;27;97725;-58
2020/12/20 07:00:47;;;;;;;12.30;10.23;;;;;;;10.32;52.40;101311.47;5020231;27;98383;-57
2020/12/20 07:03:24;;;;;;;11.77;10.07;;;;;;;10.34;51.59;101308.56;5002038;27;98496;-58
2020/12/20 07:05:51;;;;;;;12.50;10.30;;;;;;;10.35;51.68;101315.56;5002133;27;98111;-57
2020/12/20 07:08:26;;;;;;;12.27;10.15;;;;;;;10.34;51.70;101313.94;5001926;27;97734;-58
2020/12/20 07:10:53;;;;;;;12.25;10.07;;;;;;;10.35;51.66;101313.69;5001369;27;98241;-58
2020/12/20 07:13:39;;;;;;;12.82;10.15;;;;;;;10.31;52.12;101307.97;5010939;27;116814;-57
2020/12/20 07:16:16;;;;;;;11.70;9.80;;;;;;;10.31;52.46;101307.97;5021137;27;118492;-58
2020/12/20 07:19:01;;;;;;;12.35;9.38;;;;;;;10.32;52.13;101306.91;5021817;27;99305;-58
2020/12/20 07:21:38;;;;;;;12.20;9.80;;;;;;;10.31;52.20;101316.06;5020517;27;98894;-58
2020/12/20 07:24:05;;;;;;;11.43;10.00;;;;;;;10.37;52.16;101314.25;5019796;27;98830;-58
2020/12/20 07:26:32;;;;;;;11.50;10.02;;;;;;;10.39;52.17;101312.13;5016986;27;98485;-58
2020/12/20 07:28:59;;;;;;;11.75;10.10;;;;;;;10.39;52.24;101317.53;5018597;27;98231;-58
2020/12/20 07:31:26;;;;;;;11.68;9.48;;;;;;;10.41;52.62;101315.38;5018671;27;116132;-58
2020/12/20 07:33:52;;;;;;;11.13;9.93;;;;;;;10.44;52.36;101327.56;5019997;27;98285;-58
2020/12/20 07:36:21;;;;;;;13.10;10.30;;;;;;;10.43;52.38;101318.66;5018473;27;98025;-58
2020/12/20 07:38:48;;;;;;;12.32;10.40;;;;;;;10.50;52.89;101319.31;5002975;27;97813;-58
2020/12/20 07:41:16;;;;;;;14.63;10.38;;;;;;;10.55;52.28;101316.69;5008414;27;117837;-58
2020/12/20 07:43:43;;;;;;;12.20;10.55;;;;;;;10.61;52.94;101324.84;5017922;27;98559;-58
2020/12/20 07:46:11;;;;;;;11.38;10.18;;;;;;;10.66;53.60;101317.69;5019024;27;97834;-58
2020/12/20 07:48:37;;;;;;;13.05;10.45;;;;;;;10.74;52.82;101313.75;5019253;27;113726;-58
2020/12/20 07:51:26;;;;;;;11.70;10.38;;;;;;;10.83;53.71;101320.34;4983471;27;99908;-58
2020/12/20 07:53:57;;;;;;;10.65;9.55;;;;;;;10.95;53.31;101314.84;5017330;27;98295;-58
2020/12/20 07:56:33;;;;;;;12.02;10.10;;;;;;;11.05;53.34;101304.19;5019016;27;99475;-58
2020/12/20 07:59:03;;;;;;;11.15;9.95;;;;;;;11.13;53.13;101306.44;5018991;27;98114;-58
2020/12/20 08:01:29;;;;;;;11.43;10.23;;;;;;;11.25;52.79;101303.63;5019529;27;98860;-58
2020/12/20 08:04:22;;;;;;;10.27;9.27;;;;;;;11.34;53.83;101302.13;5018744;27;128276;-58
2020/12/20 08:06:50;;;;;;;10.80;9.20;;;;;;;11.48;53.43;101299.84;4997291;27;98168;-58
2020/12/20 08:09:19;;;;;;;10.93;9.80;;;;;;;11.71;53.08;101298.72;5001089;27;98246;-58
2020/12/20 08:11:45;;;;;;;10.63;8.98;;;;;;;11.84;53.58;101303.78;4997109;27;116391;-58
2020/12/20 08:14:17;;;;;;;9.52;8.52;;;;;;;11.93;53.45;101296.81;4998078;27;98625;-58
2020/12/20 08:16:44;;;;;;;9.35;8.40;;;;;;;12.10;53.37;101298.59;4999887;27;116111;-58
2020/12/20 08:19:15;;;;;;;9.32;8.35;;;;;;;12.18;53.56;101301.66;5000052;27;104161;-58
2020/12/20 08:22:13;;;;;;;8.43;7.60;;;;;;;12.19;54.07;101288.94;4996316;27;98439;-58
2020/12/20 08:24:42;;;;;;;9.32;8.32;;;;;;;12.25;54.26;101299.53;4998708;27;98334;-58
2020/12/20 08:27:31;;;;;;;9.00;7.93;;;;;;;12.32;54.42;101302.03;4980186;27;98459;-58
2020/12/20 08:30:01;;;;;;;8.65;7.53;;;;;;;12.33;54.71;101302.81;4996605;27;99623;-58
2020/12/20 08:32:40;;;;;;;8.25;7.30;;;;;;;12.35;55.40;101306.91;4998855;27;98207;-58
2020/12/20 08:35:18;;;;;;;8.30;7.50;;;;;;;12.35;55.51;101301.50;4998298;27;97879;-58
2020/12/20 08:37:45;;;;;;;7.60;6.90;;;;;;;12.40;55.74;101300.72;5007294;27;98076;-58
2020/12/20 08:40:13;;;;;;;7.40;6.63;;;;;;;12.46;55.98;101299.69;5020705;27;115777;-58
2020/12/20 08:42:40;;;;;;;7.15;6.38;;;;;;;12.59;55.64;101296.53;5022056;27;99307;-58
2020/12/20 08:45:23;;;;;;;6.60;5.97;;;;;;;12.87;55.61;101289.13;5021960;27;98851;-58
2020/12/20 08:47:50;;;;;;;6.65;5.70;;;;;;;13.31;54.86;101289.63;5021427;27;98381;-58
2020/12/20 08:50:24;;;;;;;5.65;5.15;;;;;;;14.20;53.56;101282.19;5022787;27;97778;-58
2020/12/20 08:53:01;;;;;;;5.68;5.18;;;;;;;14.88;52.84;101285.34;5021646;27;98302;-57
2020/12/20 08:55:27;;;;;;;5.70;5.20;;;;;;;15.34;52.82;101284.34;5022646;27;98761;-58
2020/12/20 08:58:07;;;;;;;5.55;4.95;;;;;;;15.58;53.18;101279.88;5022071;27;103455;-58
2020/12/20 09:00:35;;;;;;;5.07;4.57;;;;;;;15.66;53.66;101279.31;5022341;27;97779;-58
2020/12/20 09:03:02;;;;;;;4.97;4.50;;;;;;;15.94;54.14;101277.75;5021501;27;98531;-59
2020/12/20 09:05:29;;;;;;;4.72;4.22;;;;;;;16.08;53.72;101277.13;5020184;27;108675;-58
2020/12/20 09:07:57;;;;;;;3.95;3.55;;;;;;;16.24;53.93;101273.16;5022467;27;100555;-59
2020/12/20 09:10:28;;;;;;;4.28;3.88;;;;;;;16.36;54.41;101280.94;5022202;27;97861;-58
2020/12/20 09:12:58;;;;;;;3.60;3.30;;;;;;;16.47;54.05;101285.19;5000862;27;98623;-58
2020/12/20 09:15:31;;;;;;;3.90;3.47;;;;;;;16.46;54.52;101289.00;5011252;27;98171;-58
2020/12/20 09:17:59;;;;;;;3.83;3.33;;;;;;;16.35;54.58;101291.03;5021621;27;105321;-58
2020/12/20 09:20:29;;;;;;;3.35;2.95;;;;;;;16.12;55.82;101295.28;5021571;27;112959;-58
2020/12/20 09:22:59;;;;;;;3.55;3.03;;;;;;;15.84;56.01;101296.06;5014357;27;102197;-58
2020/12/20 09:25:39;;;;;;;3.70;3.33;;;;;;;15.73;55.94;101287.16;5016458;27;98894;-58
2020/12/20 09:28:20;;;;;;;3.90;3.20;;;;;;;15.54;56.08;101300.53;5008184;27;98103;-58
2020/12/20 09:30:47;;;;;;;3.30;3.00;;;;;;;15.39;56.65;101301.44;5022132;27;106690;-59
2020/12/20 09:33:26;;;;;;;3.33;3.03;;;;;;;15.35;56.76;101292.22;5022140;27;98418;-58
2020/12/20 09:35:58;;;;;;;3.50;2.80;;;;;;;15.18;57.05;101281.72;5013775;27;98406;-58
2020/12/20 09:38:26;;;;;;;2.63;2.42;;;;;;;15.10;57.69;101276.06;5004966;27;98169;-58
2020/12/20 09:40:57;;;;;;;3.08;2.78;;;;;;;15.00;57.72;101276.88;5002867;27;98565;-58
2020/12/20 09:43:23;;;;;;;3.47;3.17;;;;;;;14.95;57.58;101279.63;5016757;27;105095;-58
2020/12/20 09:45:49;;;;;;;4.65;3.15;;;;;;;14.91;57.83;101273.13;5011782;27;99033;-58
2020/12/20 09:48:15;;;;;;;3.97;3.20;;;;;;;14.94;57.83;101269.88;5002603;27;97974;-58
2020/12/20 09:50:41;;;;;;;3.13;2.83;;;;;;;14.92;57.85;101264.69;5011215;27;122693;-58
2020/12/20 09:53:07;;;;;;;2.97;2.70;;;;;;;14.85;58.30;101264.16;5008738;27;128449;-58
2020/12/20 09:55:33;;;;;;;3.65;2.80;;;;;;;14.84;58.31;101265.28;5000221;27;128242;-58
2020/12/20 09:57:59;;;;;;;3.72;2.88;;;;;;;14.86;58.21;101257.69;4999851;27;117931;-58
2020/12/20 10:00:25;;;;;;;3.35;3.05;;;;;;;14.80;58.38;101261.47;5012291;27;123520;-57
2020/12/20 10:02:51;;;;;;;4.30;3.90;;;;;;;14.78;58.63;101266.41;5016699;27;128866;-58
2020/12/20 10:05:17;;;;;;;8.00;4.70;;;;;;;14.72;59.09;101264.78;5005921;27;128490;-58
2020/12/20 10:07:44;;;;;;;5.43;4.55;;;;;;;14.69;59.04;101265.31;5002777;27;98129;-58
2020/12/20 10:10:10;;;;;;;5.80;4.65;;;;;;;14.63;58.69;101261.00;5000657;27;97811;-58
2020/12/20 10:12:36;;;;;;;5.32;4.45;;;;;;;14.60;58.99;101250.69;5000030;27;109539;-58
2020/12/20 10:15:03;;;;;;;5.60;4.22;;;;;;;14.52;59.32;101251.25;5000395;27;98511;-60
2020/12/20 10:17:29;;;;;;;4.72;4.07;;;;;;;14.46;59.55;101253.13;5000699;27;111852;-58
2020/12/20 10:19:55;;;;;;;4.38;3.67;;;;;;;14.46;59.25;101259.38;5001156;27;97963;-58
2020/12/20 10:22:21;;;;;;;4.25;3.55;;;;;;;14.40;59.62;101263.19;4999811;27;127773;-58
2020/12/20 10:24:47;;;;;;;6.45;4.80;;;;;;;14.41;59.45;101255.84;4998732;27;128626;-58
2020/12/20 10:27:13;;;;;;;4.65;4.15;;;;;;;14.39;59.34;101247.19;5000111;27;120342;-59
2020/12/20 10:29:39;;;;;;;4.97;4.43;;;;;;;14.41;59.53;101247.72;5004435;27;97867;-58
2020/12/20 10:32:05;;;;;;;4.90;4.40;;;;;;;14.39;59.75;101244.47;5015564;27;129132;-58
2020/12/20 10:34:31;;;;;;;5.30;4.13;;;;;;;14.39;59.29;101253.41;5000136;27;127232;-58
2020/12/20 10:36:57;;;;;;;4.70;4.20;;;;;;;14.42;59.21;101250.16;4999985;27;126611;-58
2020/12/20 10:39:23;;;;;;;5.28;4.63;;;;;;;14.43;58.94;101248.25;5001576;27;98401;-59
2020/12/20 10:41:52;;;;;;;6.32;4.55;;;;;;;14.47;59.30;101246.63;5016688;27;128547;-58
2020/12/20 10:44:20;;;;;;;5.30;4.60;;;;;;;14.50;58.80;101243.38;5020592;27;98360;-58
2020/12/20 10:46:50;;;;;;;5.43;4.50;;;;;;;14.47;59.29;101239.31;5019668;27;110760;-58
2020/12/20 10:49:16;;;;;;;5.45;4.88;;;;;;;14.49;59.01;101239.84;5018748;27;97914;-60
2020/12/20 10:51:42;;;;;;;5.63;4.55;;;;;;;14.51;59.15;101244.22;5019271;27;120770;-58
2020/12/20 10:54:08;;;;;;;4.78;4.13;;;;;;;14.48;59.16;101242.81;5018214;27;107498;-58
2020/12/20 10:56:34;;;;;;;4.68;4.18;;;;;;;14.48;59.36;101259.09;5017665;27;115905;-58
2020/12/20 10:59:00;;;;;;;4.90;4.25;;;;;;;14.49;59.36;101249.91;5019557;27;113979;-58
2020/12/20 11:01:26;;;;;;;5.22;4.28;;;;;;;14.45;59.59;101240.66;5008700;27;128155;-58
2020/12/20 11:03:52;;;;;;;6.93;6.22;;;;;;;14.45;59.53;101240.66;5018585;27;98285;-57
2020/12/20 11:06:23;;;;;;;7.45;6.65;;;;;;;14.42;59.86;101236.59;4999504;27;128238;-58
2020/12/20 11:08:49;;;;;;;6.28;5.68;;;;;;;14.42;59.85;101241.19;4998447;27;98062;-58
2020/12/20 11:11:16;;;;;;;6.20;5.60;;;;;;;14.40;60.18;101237.97;4997718;27;98732;-58
2020/12/20 11:13:43;;;;;;;6.15;5.40;;;;;;;14.39;59.59;101231.72;5001993;27;98263;-58
2020/12/20 11:16:18;;;;;;;5.53;4.95;;;;;;;14.38;59.63;101231.97;5017164;27;98519;-58
2020/12/20 11:18:45;;;;;;;4.95;4.55;;;;;;;14.39;59.50;101225.50;5019084;27;110533;-58